Time;durP1;ratioP1;P1;durP2;ratioP2;P2;SDS_P1;SDS_P2;PMS_P1;PMS_P2;Temp;Humidity;BMP_temperature;BMP_pressure;BME280_temperature;BME280_humidity;BME280_pressure;Samples;Min_cycle;Max_cycle;Signal;HPM_P1;HPM_P2
2022/10/15 00:00:20;;;;;;;;;;;16.60;71.80;;;12.49;100.00;95229.09;4992268;28;20015;-45
2022/10/15 00:02:49;;;;;;;;;;;16.60;71.80;;;12.48;100.00;95233.66;4994769;28;19909;-46
2022/10/15 00:05:22;;;;;;;;;;;16.60;71.90;;;12.49;100.00;95227.22;5010702;28;19955;-48
2022/10/15 00:07:48;;;;;;;;;;;16.60;71.90;;;12.53;100.00;95232.78;5005673;28;19922;-46
2022/10/15 00:10:15;;;;;;;;;;;16.60;72.70;;;12.55;100.00;95227.97;5003147;28;19916;-47
2022/10/15 00:12:42;;;;;;;;;;;16.60;72.00;;;12.52;100.00;95241.91;4986555;28;19909;-48
2022/10/15 00:15:09;;;;;;;;;;;16.60;72.10;;;12.53;100.00;95238.13;4990873;28;19923;-52
2022/10/15 00:17:47;;;;;;;;;;;16.60;72.10;;;12.56;100.00;95242.91;4976895;28;19937;-49
2022/10/15 00:20:14;;;;;;;;;;;16.60;72.00;;;12.58;100.00;95247.97;5000122;28;19914;-48
2022/10/15 00:22:40;;;;;;;;;;;16.60;72.10;;;12.56;100.00;95234.91;4994614;28;20411;-47
2022/10/15 00:25:09;;;;;;;;;;;16.60;72.10;;;12.56;100.00;95239.44;5000808;28;20000;-45
2022/10/15 00:27:36;;;;;;;;;;;16.60;72.10;;;12.56;100.00;95228.75;5010747;28;19920;-46
2022/10/15 00:30:04;;;;;;;;;;;16.60;72.10;;;12.59;100.00;95228.97;4991146;28;19909;-46
2022/10/15 00:32:31;;;;;;;;;;;16.60;72.10;;;12.59;100.00;95231.66;5000459;28;19913;-45
2022/10/15 00:34:57;;;;;;;;;;;16.70;72.20;;;12.60;100.00;95222.56;5005060;28;20015;-46
2022/10/15 00:37:23;;;;;;;;;;;16.70;72.30;;;12.60;100.00;95232.47;4983420;28;20012;-51
2022/10/15 00:39:49;;;;;;;;;;;16.70;72.30;;;12.61;100.00;95226.03;4990381;28;19916;-47
2022/10/15 00:42:21;;;;;;;;;;;16.70;72.20;;;12.61;100.00;95226.03;4996359;28;19910;-45
2022/10/15 00:44:57;;;;;;;;;;;16.70;72.20;;;12.55;100.00;95232.53;5009335;28;19921;-48
2022/10/15 00:47:46;;;;;;;;;;;16.70;72.30;;;12.53;100.00;95234.69;5009281;28;20360;-50
2022/10/15 00:50:20;;;;;;;;;;;16.70;72.40;;;12.53;100.00;95240.81;5007144;28;20003;-49
2022/10/15 00:53:12;;;;;;;;;;;16.70;72.50;;;12.55;100.00;95235.97;4998011;28;19916;-45
2022/10/15 00:55:42;;;;;;;;;;;16.60;72.50;;;12.59;100.00;95241.56;4990436;28;19960;-47
2022/10/15 00:58:17;;;;;;;;;;;16.60;72.60;;;12.63;100.00;95243.38;4973156;28;19913;-45
2022/10/15 01:00:43;;;;;;;;;;;16.70;72.70;;;12.60;100.00;95237.81;4978644;28;20435;-53
2022/10/15 01:03:18;;;;;;;;;;;16.60;72.70;;;12.62;100.00;95259.69;4991349;28;19982;-45
2022/10/15 01:05:53;;;;;;;;;;;16.70;72.80;;;12.62;100.00;95249.78;5000578;28;19956;-46
2022/10/15 01:08:22;;;;;;;;;;;16.70;72.80;;;12.61;100.00;95244.75;4977945;28;19909;-46
2022/10/15 01:11:12;;;;;;;;;;;16.70;72.90;;;12.55;100.00;95240.53;4993919;28;19939;-46
2022/10/15 01:14:13;;;;;;;;;;;16.70;73.00;;;12.57;100.00;95251.75;5005270;28;20307;-45
2022/10/15 01:17:14;;;;;;;;;;;16.70;73.20;;;12.54;100.00;95250.44;5018512;28;19916;-45
2022/10/15 01:20:11;;;;;;;;;;;16.60;73.10;;;12.65;100.00;95262.56;4966728;28;19913;-47
2022/10/15 01:23:19;;;;;;;;;;;16.70;73.20;;;12.68;100.00;95255.88;5013390;28;19923;-44
2022/10/15 01:26:18;;;;;;;;;;;16.70;73.20;;;12.70;100.00;95264.41;5011974;28;19909;-49
2022/10/15 01:29:44;;;;;;;;;;;16.70;73.30;;;12.76;100.00;95257.94;5012924;28;19913;-47
2022/10/15 01:32:33;;;;;;;;;;;16.70;73.30;;;12.74;100.00;95257.41;5011810;28;19913;-47
2022/10/15 01:35:45;;;;;;;;;;;16.70;73.40;;;12.73;100.00;95264.63;5012049;28;19920;-48
2022/10/15 01:39:00;;;;;;;;;;;16.70;73.50;;;12.81;100.00;95254.38;5004267;28;19913;-46
2022/10/15 01:41:58;;;;;;;;;;;16.80;73.60;;;12.83;100.00;95255.69;5001635;28;19910;-51
2022/10/15 01:44:46;;;;;;;;;;;16.80;73.50;;;12.87;100.00;95243.34;5011034;28;20008;-47
2022/10/15 01:47:52;;;;;;;;;;;16.80;73.50;;;12.89;100.00;95240.41;5011910;28;19915;-47
2022/10/15 01:50:29;;;;;;;;;;;16.90;73.60;;;12.89;100.00;95238.50;5026005;28;19963;-46
2022/10/15 01:53:00;;;;;;;;;;;16.90;73.60;;;12.94;100.00;95237.63;5001155;28;20331;-46
2022/10/15 01:55:27;;;;;;;;;;;16.90;73.60;;;12.97;100.00;95231.72;5004579;28;20265;-45
2022/10/15 01:57:58;;;;;;;;;;;17.00;73.60;;;12.95;100.00;95225.88;4992071;28;19976;-50
2022/10/15 02:00:24;;;;;;;;;;;16.90;73.60;;;13.00;100.00;95222.31;5008697;28;20004;-49
2022/10/15 02:02:57;;;;;;;;;;;17.00;73.60;;;13.03;100.00;95224.44;5001367;28;19992;-47
2022/10/15 02:05:43;;;;;;;;;;;17.00;73.70;;;13.00;100.00;95227.69;5007095;28;19909;-49
2022/10/15 02:08:56;;;;;;;;;;;17.00;73.70;;;13.05;100.00;95227.63;4991888;28;20008;-46
2022/10/15 02:11:22;;;;;;;;;;;17.10;74.00;;;13.10;100.00;95227.53;5012789;28;19909;-48
2022/10/15 02:14:14;;;;;;;;;;;17.10;74.00;;;13.11;100.00;95218.44;4994542;28;20360;-52
2022/10/15 02:16:53;;;;;;;;;;;17.00;74.00;;;13.13;100.00;95209.06;4992591;28;19959;-46
2022/10/15 02:19:41;;;;;;;;;;;17.10;74.10;;;13.18;100.00;95211.63;5002431;28;19916;-45
2022/10/15 02:23:10;;;;;;;;;;;17.10;73.90;;;13.17;100.00;95207.38;5011988;28;19909;-44
2022/10/15 02:25:39;;;;;;;;;;;17.10;74.00;;;13.20;100.00;95201.47;4938509;28;19942;-45
2022/10/15 02:28:08;;;;;;;;;;;17.20;74.20;;;13.25;100.00;95202.50;5022961;28;19952;-48
2022/10/15 02:30:49;;;;;;;;;;;17.20;74.20;;;13.30;100.00;95200.53;4994686;28;20007;-46
2022/10/15 02:33:19;;;;;;;;;;;17.20;74.20;;;13.33;100.00;95199.16;5010056;28;19931;-46
2022/10/15 02:35:51;;;;;;;;;;;17.20;74.90;;;13.35;100.00;95196.97;5010946;28;19913;-45
2022/10/15 02:38:23;;;;;;;;;;;17.30;74.20;;;13.39;100.00;95200.69;4991316;28;19910;-46
2022/10/15 02:40:53;;;;;;;;;;;17.30;74.10;;;13.40;100.00;95194.22;5004363;28;19914;-46
2022/10/15 02:43:21;;;;;;;;;;;17.40;74.10;;;13.44;100.00;95200.59;4990770;28;19916;-49
2022/10/15 02:45:52;;;;;;;;;;;17.40;74.00;;;13.46;100.00;95206.44;4974868;28;19909;-46
2022/10/15 02:48:20;;;;;;;;;;;17.40;74.00;;;13.47;100.00;95199.22;4998656;28;19921;-45
2022/10/15 02:50:46;;;;;;;;;;;17.40;73.90;;;13.51;100.00;95197.56;4998871;28;19948;-52
2022/10/15 02:53:15;;;;;;;;;;;17.50;73.90;;;13.50;100.00;95199.41;5003245;28;19917;-48
2022/10/15 02:55:41;;;;;;;;;;;17.50;73.80;;;13.53;100.00;95190.03;5005788;28;20307;-48
2022/10/15 02:58:12;;;;;;;;;;;17.50;73.70;;;13.55;100.00;95190.53;5002943;28;19939;-48
2022/10/15 03:00:38;;;;;;;;;;;17.50;73.70;;;13.57;100.00;95191.00;4980439;28;20025;-45
2022/10/15 03:03:04;;;;;;;;;;;17.60;73.80;;;13.56;100.00;95186.75;4993923;28;19948;-47
2022/10/15 03:05:30;;;;;;;;;;;17.60;73.80;;;13.56;100.00;95192.91;5010287;28;20019;-47
2022/10/15 03:07:57;;;;;;;;;;;17.60;73.70;;;13.60;100.00;95193.09;5011857;28;19935;-50
2022/10/15 03:10:25;;;;;;;;;;;17.60;73.80;;;13.62;100.00;95191.72;4994128;28;19920;-52
2022/10/15 03:13:03;;;;;;;;;;;17.60;73.70;;;13.63;100.00;95190.66;4996699;28;19909;-46
2022/10/15 03:15:35;;;;;;;;;;;17.60;73.70;;;13.65;100.00;95191.16;5010174;28;20379;-46
2022/10/15 03:18:01;;;;;;;;;;;17.60;73.70;;;13.71;100.00;95199.91;5009059;28;19932;-56
2022/10/15 03:20:27;;;;;;;;;;;17.70;73.70;;;13.73;100.00;95204.97;5009070;28;19913;-47
2022/10/15 03:22:53;;;;;;;;;;;17.70;73.70;;;13.74;100.00;95191.28;5009801;28;19920;-52
2022/10/15 03:25:18;;;;;;;;;;;17.70;73.60;;;13.77;100.00;95197.94;5009325;28;19909;-48
2022/10/15 03:27:47;;;;;;;;;;;17.80;73.60;;;13.81;100.00;95197.03;5009604;28;19913;-46
2022/10/15 03:30:16;;;;;;;;;;;17.80;73.50;;;13.81;100.00;95199.72;5008462;28;19912;-49
2022/10/15 03:32:42;;;;;;;;;;;17.80;73.50;;;13.84;100.00;95198.34;4990124;28;20471;-46
2022/10/15 03:35:14;;;;;;;;;;;17.80;73.40;;;13.84;100.00;95193.78;4996776;28;19914;-46
2022/10/15 03:37:40;;;;;;;;;;;17.80;73.40;;;13.82;100.00;95198.66;4991049;28;19909;-46
2022/10/15 03:40:15;;;;;;;;;;;17.80;73.30;;;13.86;100.00;95194.28;4997514;28;20372;-49
2022/10/15 03:42:51;;;;;;;;;;;17.80;73.30;;;13.87;100.00;95195.84;4989885;28;19909;-47
2022/10/15 03:45:19;;;;;;;;;;;17.80;73.30;;;13.89;100.00;95192.91;4989873;28;19932;-51
2022/10/15 03:47:48;;;;;;;;;;;17.80;73.20;;;13.86;100.00;95196.16;4993987;28;19952;-47
2022/10/15 03:50:14;;;;;;;;;;;17.80;73.20;;;13.91;100.00;95201.41;5011094;28;19921;-46
2022/10/15 03:52:40;;;;;;;;;;;17.80;73.20;;;13.95;100.00;95207.00;5012953;28;19958;-46
2022/10/15 03:55:08;;;;;;;;;;;17.90;73.20;;;13.89;100.00;95198.25;5016114;28;20317;-48
2022/10/15 03:57:35;;;;;;;;;;;17.90;73.10;;;13.90;100.00;95202.50;5030613;28;19909;-47
2022/10/15 04:00:00;;;;;;;;;;;17.90;73.10;;;13.90;100.00;95194.47;5012188;28;19955;-51
2022/10/15 04:02:26;;;;;;;;;;;17.90;73.00;;;13.88;100.00;95205.50;5029737;28;19948;-46
2022/10/15 04:04:53;;;;;;;;;;;17.90;73.00;;;13.88;100.00;95202.00;5012769;28;19909;-51
2022/10/15 04:07:20;;;;;;;;;;;17.90;73.00;;;13.91;100.00;95208.66;5012505;28;19915;-47
2022/10/15 04:09:52;;;;;;;;;;;17.90;73.00;;;13.88;100.00;95202.81;4995907;28;19909;-46
2022/10/15 04:12:18;;;;;;;;;;;17.90;73.00;;;13.88;100.00;95202.81;5011503;28;19951;-47
2022/10/15 04:14:50;;;;;;;;;;;17.90;72.90;;;13.91;100.00;95206.78;5012651;28;20298;-48
2022/10/15 04:17:24;;;;;;;;;;;17.90;72.90;;;13.88;100.00;95205.50;5007489;28;20003;-49
2022/10/15 04:19:53;;;;;;;;;;;17.80;72.90;;;13.91;100.00;95192.59;5016202;28;19908;-46
2022/10/15 04:22:24;;;;;;;;;;;17.90;72.90;;;13.89;100.00;95195.59;5009305;28;19996;-48
2022/10/15 04:24:52;;;;;;;;;;;17.80;72.80;;;13.88;100.00;95196.66;5024895;28;19954;-47
2022/10/15 04:27:24;;;;;;;;;;;17.90;72.90;;;13.91;100.00;95203.31;5029973;28;20011;-47
2022/10/15 04:29:50;;;;;;;;;;;17.90;72.90;;;13.89;100.00;95192.91;5012774;28;19932;-48
2022/10/15 04:32:19;;;;;;;;;;;17.90;72.90;;;13.89;100.00;95217.00;5019749;28;20376;-46
2022/10/15 04:34:46;;;;;;;;;;;17.90;72.90;;;13.95;100.00;95215.03;5005899;28;19913;-46
2022/10/15 04:37:12;;;;;;;;;;;17.90;72.80;;;13.92;100.00;95207.59;5007135;28;20337;-45
2022/10/15 04:39:40;;;;;;;;;;;17.90;72.80;;;13.87;100.00;95211.13;5030023;28;19916;-46
2022/10/15 04:42:09;;;;;;;;;;;17.90;72.80;;;13.92;100.00;95212.94;4999686;28;19909;-48
2022/10/15 04:44:46;;;;;;;;;;;17.90;72.70;;;13.90;100.00;95205.19;5016007;28;19909;-46
2022/10/15 04:47:18;;;;;;;;;;;17.90;72.70;;;13.89;100.00;95208.97;4996069;28;19913;-46
2022/10/15 04:49:44;;;;;;;;;;;17.90;72.70;;;13.96;100.00;95208.59;5006622;28;19918;-46
2022/10/15 04:52:16;;;;;;;;;;;17.90;72.70;;;13.99;100.00;95218.69;4990426;28;20394;-49
2022/10/15 04:54:45;;;;;;;;;;;17.90;72.60;;;13.97;100.00;95213.63;4995692;28;19914;-48
2022/10/15 04:57:16;;;;;;;;;;;17.90;72.60;;;13.98;100.00;95209.88;4994043;28;19964;-46
2022/10/15 04:59:51;;;;;;;;;;;18.00;72.60;;;13.98;100.00;95209.88;4993015;28;20439;-48
2022/10/15 05:02:17;;;;;;;;;;;18.00;72.50;;;13.99;100.00;95211.47;5010016;28;19925;-45
2022/10/15 05:04:43;;;;;;;;;;;18.00;72.50;;;14.02;100.00;95218.13;5028954;28;19912;-48
2022/10/15 05:07:09;;;;;;;;;;;18.00;72.40;;;13.99;100.00;95218.69;5014493;28;19995;-46
2022/10/15 05:09:40;;;;;;;;;;;18.00;72.40;;;13.98;100.00;95217.13;5032126;28;19915;-46
2022/10/15 05:12:06;;;;;;;;;;;18.00;72.40;;;13.96;100.00;95219.28;5030700;28;20386;-49
2022/10/15 05:14:35;;;;;;;;;;;18.00;72.30;;;13.95;100.00;95225.75;5021905;28;19912;-46
2022/10/15 05:17:01;;;;;;;;;;;18.00;72.30;;;13.89;100.00;95219.69;5046911;28;19962;-46
2022/10/15 05:19:26;;;;;;;;;;;18.00;72.30;;;13.94;100.00;95229.50;5008226;28;20639;-48
2022/10/15 05:21:52;;;;;;;;;;;18.00;72.30;;;13.95;100.00;95226.53;5028729;28;19908;-51
2022/10/15 05:24:24;;;;;;;;;;;18.00;72.20;;;13.96;99.18;95238.03;5012665;28;19932;-47
2022/10/15 05:26:49;;;;;;;;;;;18.00;72.20;;;13.99;99.47;95227.53;5027030;28;20387;-47
2022/10/15 05:29:18;;;;;;;;;;;18.00;72.20;;;13.97;98.79;95223.56;5031871;28;19963;-48
2022/10/15 05:31:44;;;;;;;;;;;18.00;72.20;;;13.99;99.72;95234.78;5015346;28;20392;-51
2022/10/15 05:34:16;;;;;;;;;;;18.00;72.20;;;13.98;99.56;95238.53;5028348;28;19913;-48
2022/10/15 05:36:42;;;;;;;;;;;18.00;72.10;;;13.95;98.63;95237.25;5026341;28;19913;-48
2022/10/15 05:39:09;;;;;;;;;;;18.00;72.10;;;13.97;98.88;95240.41;5031875;28;19919;-46
2022/10/15 05:41:44;;;;;;;;;;;18.00;72.10;;;14.02;98.84;95245.69;5047691;28;19962;-46
2022/10/15 05:44:10;;;;;;;;;;;18.00;72.10;;;14.01;97.76;95246.78;5009179;28;19909;-50
2022/10/15 05:46:42;;;;;;;;;;;18.00;72.10;;;14.05;98.47;95249.66;5012329;28;19909;-46
2022/10/15 05:49:13;;;;;;;;;;;18.00;72.00;;;14.03;98.60;95257.97;5013029;28;20276;-46
2022/10/15 05:51:51;;;;;;;;;;;18.00;72.00;;;14.06;98.52;95265.44;5026711;28;20290;-46
2022/10/15 05:54:17;;;;;;;;;;;18.00;72.00;;;14.09;98.62;95264.03;5019677;28;19944;-46
2022/10/15 05:56:46;;;;;;;;;;;18.00;72.00;;;14.10;98.56;95265.63;5010304;28;19917;-46
2022/10/15 05:59:17;;;;;;;;;;;18.10;72.00;;;14.11;98.78;95259.19;5030294;28;19909;-46
2022/10/15 06:01:48;;;;;;;;;;;18.10;71.90;;;14.06;98.43;95260.06;5004847;28;20291;-51
2022/10/15 06:04:14;;;;;;;;;;;18.10;71.80;;;14.06;98.72;95257.38;5018765;28;19954;-50
2022/10/15 06:06:40;;;;;;;;;;;18.10;71.80;;;14.04;98.27;95256.91;5025048;28;19916;-48
2022/10/15 06:09:06;;;;;;;;;;;18.20;71.70;;;14.06;98.77;95264.63;5011108;28;19909;-45
2022/10/15 06:11:32;;;;;;;;;;;18.20;71.70;;;14.06;99.38;95265.44;5026813;28;20086;-47
2022/10/15 06:13:58;;;;;;;;;;;18.20;71.60;;;14.05;99.30;95276.44;5003320;28;19917;-46
2022/10/15 06:16:23;;;;;;;;;;;18.20;71.60;;;14.01;99.12;95281.59;5026146;28;19909;-47
2022/10/15 06:18:52;;;;;;;;;;;18.20;71.60;;;14.04;99.24;95285.53;5014449;28;19924;-46
2022/10/15 06:21:18;;;;;;;;;;;18.20;71.60;;;14.03;99.04;95282.06;5026335;28;19986;-60
2022/10/15 06:23:44;;;;;;;;;;;18.20;71.60;;;14.01;98.66;95296.88;5010773;28;20033;-52
2022/10/15 06:26:10;;;;;;;;;;;18.20;71.60;;;14.06;98.85;95302.13;5013026;28;20381;-47
2022/10/15 06:28:38;;;;;;;;;;;18.20;71.60;;;14.06;98.35;95302.91;5026518;28;20003;-49
2022/10/15 06:31:05;;;;;;;;;;;18.20;71.60;;;14.07;98.30;95299.16;5020867;28;19916;-46
2022/10/15 06:33:34;;;;;;;;;;;18.20;71.60;;;14.11;98.23;95302.06;5023731;28;19909;-45
2022/10/15 06:36:06;;;;;;;;;;;18.30;71.60;;;14.12;98.30;95311.66;5027481;28;20294;-55
2022/10/15 06:38:33;;;;;;;;;;;18.30;71.50;;;14.14;98.08;95306.81;5006129;28;20344;-46
2022/10/15 06:40:59;;;;;;;;;;;18.30;71.40;;;14.17;97.85;95310.81;5028749;28;19917;-55
2022/10/15 06:43:27;;;;;;;;;;;18.40;71.40;;;14.22;97.81;95313.38;5002716;28;19916;-46
2022/10/15 06:45:58;;;;;;;;;;;18.40;72.10;;;14.26;97.39;95301.81;5016483;28;19998;-47
2022/10/15 06:48:23;;;;;;;;;;;18.40;71.20;;;14.28;97.33;95306.84;5002191;28;20304;-46
2022/10/15 06:50:52;;;;;;;;;;;18.50;71.20;;;14.28;96.98;95309.53;5020245;28;19921;-50
2022/10/15 06:53:18;;;;;;;;;;;18.50;71.10;;;14.33;96.84;95309.44;5008203;28;20269;-46
2022/10/15 06:55:46;;;;;;;;;;;18.60;71.10;;;14.31;95.96;95315.09;5015647;28;19913;-49
2022/10/15 06:58:28;;;;;;;;;;;18.60;71.00;;;14.39;95.78;95308.28;5021560;28;19912;-45
2022/10/15 07:01:05;;;;;;;;;;;18.70;70.90;;;14.44;95.83;95312.72;5004427;28;20272;-47
2022/10/15 07:03:35;;;;;;;;;;;18.70;70.80;;;14.46;96.38;95316.72;5007088;28;19909;-46
2022/10/15 07:06:08;;;;;;;;;;;18.70;70.70;;;14.46;95.32;95322.06;5027765;28;19915;-47
2022/10/15 07:08:35;;;;;;;;;;;18.70;70.70;;;14.43;95.61;95332.59;5014352;28;19913;-48
2022/10/15 07:11:04;;;;;;;;;;;18.80;70.60;;;14.45;95.41;95338.47;5019432;28;19916;-46
2022/10/15 07:13:30;;;;;;;;;;;18.80;70.50;;;14.49;95.21;95334.09;5017829;28;20229;-56
2022/10/15 07:15:56;;;;;;;;;;;18.80;70.40;;;14.51;94.79;95338.09;5045744;28;20393;-45
2022/10/15 07:18:25;;;;;;;;;;;18.90;70.40;;;14.54;94.43;95347.41;5024972;28;20024;-46
2022/10/15 07:20:56;;;;;;;;;;;18.90;70.40;;;14.55;94.48;95354.38;5036397;28;19915;-48
2022/10/15 07:23:25;;;;;;;;;;;18.90;70.30;;;14.61;94.79;95357.78;5029973;28;19908;-47
2022/10/15 07:25:50;;;;;;;;;;;19.00;70.20;;;14.68;94.43;95350.13;5012828;28;19916;-52
2022/10/15 07:28:17;;;;;;;;;;;19.00;70.10;;;14.75;93.63;95355.91;5010452;28;19909;-48
2022/10/15 07:30:43;;;;;;;;;;;19.10;70.00;;;14.83;92.80;95347.19;5022908;28;19952;-46
2022/10/15 07:33:09;;;;;;;;;;;19.30;69.90;;;14.93;92.62;95351.56;5001111;28;19909;-46
2022/10/15 07:35:37;;;;;;;;;;;19.50;69.70;;;15.02;92.13;95361.28;5011175;28;19913;-47
2022/10/15 07:38:05;;;;;;;;;;;19.60;69.50;;;15.06;90.70;95350.75;5012586;28;20007;-46
2022/10/15 07:40:34;;;;;;;;;;;19.70;69.20;;;15.18;90.93;95353.75;5045956;28;19920;-48
2022/10/15 07:43:00;;;;;;;;;;;19.80;69.10;;;15.25;90.21;95350.66;5026896;28;19944;-49
2022/10/15 07:45:27;;;;;;;;;;;19.80;69.00;;;15.23;88.80;95358.19;5030753;28;19915;-46
2022/10/15 07:47:54;;;;;;;;;;;19.90;68.80;;;15.26;89.46;95354.91;5012478;28;20394;-50
2022/10/15 07:50:20;;;;;;;;;;;19.90;68.50;;;15.35;89.59;95355.81;5009743;28;19921;-48
2022/10/15 07:52:49;;;;;;;;;;;20.00;68.50;;;15.32;88.72;95359.09;5007409;28;19909;-46
2022/10/15 07:55:15;;;;;;;;;;;20.10;68.30;;;15.37;88.67;95356.31;4998729;28;20007;-46
2022/10/15 07:57:41;;;;;;;;;;;20.10;68.20;;;15.42;88.37;95358.09;5008133;28;19996;-46
2022/10/15 08:00:08;;;;;;;;;;;20.10;68.00;;;15.48;88.85;95348.81;4995439;28;19913;-56
2022/10/15 08:02:34;;;;;;;;;;;20.20;67.90;;;15.55;88.67;95364.53;4975170;28;19909;-50
2022/10/15 08:04:59;;;;;;;;;;;20.20;67.80;;;15.62;87.61;95359.56;5009023;28;19909;-49
2022/10/15 08:07:25;;;;;;;;;;;20.40;67.70;;;15.63;86.73;95361.13;4993157;28;19910;-46
2022/10/15 08:09:54;;;;;;;;;;;20.50;67.50;;;15.75;86.11;95349.91;5003958;28;19910;-46
2022/10/15 08:12:20;;;;;;;;;;;20.50;67.30;;;15.79;85.80;95348.19;5002209;28;19913;-45
2022/10/15 08:14:54;;;;;;;;;;;20.60;67.30;;;15.90;85.82;95350.34;5007641;28;19921;-47
2022/10/15 08:17:20;;;;;;;;;;;20.60;67.30;;;16.05;84.87;95353.81;5007430;28;19909;-46
2022/10/15 08:19:52;;;;;;;;;;;20.70;67.10;;;16.17;85.68;95360.22;5006534;28;19909;-46
2022/10/15 08:22:21;;;;;;;;;;;20.90;67.10;;;16.29;85.56;95362.34;5014369;28;19916;-45
2022/10/15 08:24:53;;;;;;;;;;;21.00;67.10;;;16.34;85.45;95362.22;5004992;28;19918;-45
2022/10/15 08:27:18;;;;;;;;;;;21.10;67.00;;;16.45;87.00;95370.81;5003485;28;19933;-46
2022/10/15 08:29:45;;;;;;;;;;;21.30;66.80;;;16.62;84.67;95368.25;4995594;28;19910;-48
2022/10/15 08:32:12;;;;;;;;;;;21.60;66.60;;;16.78;84.46;95365.97;5009927;28;19932;-46
2022/10/15 08:34:40;;;;;;;;;;;21.90;66.50;;;16.94;85.76;95366.38;4990079;28;20372;-47
2022/10/15 08:37:06;;;;;;;;;;;22.00;66.20;;;16.99;83.11;95363.56;5004530;28;20315;-46
2022/10/15 08:39:41;;;;;;;;;;;22.10;66.00;;;17.15;83.34;95372.00;5002882;28;19909;-49
2022/10/15 08:42:39;;;;;;;;;;;22.30;65.90;;;17.26;81.66;95373.28;5010620;28;19913;-52
2022/10/15 08:45:30;;;;;;;;;;;22.50;65.70;;;17.33;80.28;95380.94;5008732;28;20005;-46
2022/10/15 08:48:11;;;;;;;;;;;22.60;65.50;;;17.38;80.50;95375.41;5012381;28;20295;-48
2022/10/15 08:51:45;;;;;;;;;;;22.70;65.30;;;17.44;79.45;95376.84;5007579;28;19918;-52
2022/10/15 08:54:16;;;;;;;;;;;22.80;65.00;;;17.37;79.19;95376.50;4933795;29;19926;-54
2022/10/15 08:57:45;;;;;;;;;;;22.70;64.50;;;17.32;80.55;95377.44;4968601;28;19973;-52
2022/10/15 09:00:23;;;;;;;;;;;22.70;64.40;;;17.25;80.34;95385.19;4984164;28;19944;-50
2022/10/15 09:03:07;;;;;;;;;;;22.50;64.00;;;17.23;79.93;95379.31;4999655;28;20358;-55
2022/10/15 09:05:48;;;;;;;;;;;22.50;64.00;;;17.07;80.85;95376.22;5012404;28;19910;-54
2022/10/15 09:09:01;;;;;;;;;;;22.50;63.50;;;17.00;80.08;95381.28;4988333;28;19917;-55
2022/10/15 09:12:09;;;;;;;;;;;22.50;62.90;;;17.11;78.25;95379.13;5002674;28;20439;-55
2022/10/15 09:14:42;;;;;;;;;;;22.60;62.90;;;17.22;76.77;95361.56;4995583;28;19913;-54
2022/10/15 09:17:24;;;;;;;;;;;22.70;62.60;;;17.37;74.84;95375.72;5016003;28;19966;-52
2022/10/15 09:19:56;;;;;;;;;;;22.80;62.40;;;17.44;76.28;95365.28;5009743;28;19914;-54
2022/10/15 09:22:27;;;;;;;;;;;22.90;61.90;;;17.57;74.03;95383.22;4985803;28;20287;-51
2022/10/15 09:24:53;;;;;;;;;;;23.00;61.70;;;17.60;74.50;95377.19;4992935;28;19909;-49
2022/10/15 09:27:38;;;;;;;;;;;23.00;61.10;;;17.80;73.03;95386.63;4972569;28;19913;-51
2022/10/15 09:30:48;;;;;;;;;;;23.20;61.00;;;17.82;71.08;95379.00;4979979;28;20028;-52
2022/10/15 09:33:46;;;;;;;;;;;23.40;60.90;;;17.84;71.14;95376.81;5010835;28;20360;-51
2022/10/15 09:36:51;;;;;;;;;;;23.50;59.90;;;18.06;71.05;95397.41;4959889;28;19914;-54
2022/10/15 09:39:53;;;;;;;;;;;23.60;59.60;;;18.05;71.94;95393.16;4867300;28;20367;-52
2022/10/15 09:42:36;;;;;;;;;;;23.80;59.20;;;17.95;71.92;95394.22;5005747;28;19931;-54
2022/10/15 09:45:15;;;;;;;;;;;23.90;58.80;;;18.14;72.52;95390.44;4984480;28;19910;-54
2022/10/15 09:47:47;;;;;;;;;;;23.90;58.50;;;17.98;69.18;95390.91;4988736;28;19917;-52
2022/10/15 09:50:16;;;;;;;;;;;24.00;58.20;;;17.81;70.97;95388.22;4999981;28;20330;-51
2022/10/15 09:53:26;;;;;;;;;;;24.10;57.30;;;17.97;70.63;95389.31;5026601;28;19917;-55
2022/10/15 09:56:18;;;;;;;;;;;24.10;57.10;;;17.79;69.82;95393.09;5004878;28;19949;-51
2022/10/15 09:58:57;;;;;;;;;;;24.10;56.50;;;17.93;69.46;95392.97;4986347;28;19909;-55
2022/10/15 10:01:32;;;;;;;;;;;24.10;56.50;;;17.92;68.88;95392.16;5021106;28;19917;-52
2022/10/15 10:04:19;;;;;;;;;;;24.00;56.40;;;17.94;70.43;95391.88;5010353;28;20407;-52
2022/10/15 10:06:56;;;;;;;;;;;24.00;56.30;;;17.95;69.09;95379.97;4996757;28;19952;-56
2022/10/15 10:09:54;;;;;;;;;;;24.00;56.20;;;18.03;70.28;95377.28;5018183;28;19908;-50
2022/10/15 10:12:34;;;;;;;;;;;24.00;56.00;;;18.15;69.12;95375.88;5013363;28;19909;-56
2022/10/15 10:15:09;;;;;;;;;;;24.10;56.10;;;18.02;68.67;95383.00;5029333;28;19958;-53
2022/10/15 10:17:35;;;;;;;;;;;24.10;55.90;;;18.04;69.74;95383.47;5022758;28;19912;-53
2022/10/15 10:20:16;;;;;;;;;;;24.10;55.50;;;18.20;69.96;95389.16;5001756;28;20420;-57
2022/10/15 10:22:52;;;;;;;;;;;24.20;55.50;;;18.28;68.96;95393.78;4985820;28;20280;-57
2022/10/15 10:25:42;;;;;;;;;;;24.30;55.30;;;18.45;67.04;95388.34;5014078;28;19913;-57
2022/10/15 10:28:08;;;;;;;;;;;24.50;55.10;;;18.46;66.95;95395.34;5019160;28;20375;-52
2022/10/15 10:31:02;;;;;;;;;;;24.60;55.00;;;18.43;67.54;95396.00;5024601;28;19963;-52
2022/10/15 10:33:49;;;;;;;;;;;24.60;54.60;;;18.58;68.04;95380.41;5001653;28;19913;-56
2022/10/15 10:36:28;;;;;;;;;;;24.60;54.80;;;18.64;69.13;95379.13;5002375;28;20008;-56
2022/10/15 10:39:23;;;;;;;;;;;24.50;54.80;;;18.46;68.99;95378.38;5004873;28;19912;-57
2022/10/15 10:42:18;;;;;;;;;;;24.50;54.60;;;18.45;68.50;95382.97;4998157;28;19913;-57
2022/10/15 10:44:52;;;;;;;;;;;24.50;54.40;;;18.64;67.24;95385.31;4995829;28;20000;-57
2022/10/15 10:47:25;;;;;;;;;;;24.50;54.50;;;18.62;66.98;95394.88;5016343;28;19916;-57
2022/10/15 10:49:57;;;;;;;;;;;24.60;54.40;;;18.63;67.05;95393.75;5011701;28;20411;-57
2022/10/15 10:52:31;;;;;;;;;;;24.70;54.20;;;18.69;66.66;95387.84;5004548;28;19916;-49
2022/10/15 10:55:18;;;;;;;;;;;24.70;54.20;;;18.72;66.01;95395.34;5022051;28;19931;-56
2022/10/15 10:57:58;;;;;;;;;;;24.70;54.10;;;18.79;65.38;95388.66;5020024;28;20441;-55
2022/10/15 11:00:40;;;;;;;;;;;24.70;54.10;;;18.70;66.28;95388.63;5001216;28;20386;-54
2022/10/15 11:03:36;;;;;;;;;;;24.70;54.10;;;18.70;67.97;95397.53;5008996;28;20008;-57
2022/10/15 11:06:15;;;;;;;;;;;24.60;54.00;;;18.78;66.75;95390.56;5009985;28;19916;-55
2022/10/15 11:09:11;;;;;;;;;;;24.60;54.00;;;19.00;66.20;95392.25;5020667;28;19910;-57
2022/10/15 11:11:58;;;;;;;;;;;24.80;54.00;;;19.25;66.60;95384.38;5024379;28;19914;-57
2022/10/15 11:14:51;;;;;;;;;;;25.10;53.90;;;19.32;65.86;95390.06;5012837;28;20294;-57
2022/10/15 11:18:13;;;;;;;;;;;25.30;53.70;;;19.37;66.30;95392.59;5022380;28;19913;-56
2022/10/15 11:20:59;;;;;;;;;;;25.60;53.50;;;19.18;64.87;95372.19;5019306;28;19920;-57
2022/10/15 11:24:18;;;;;;;;;;;25.80;53.10;;;19.35;63.81;95376.69;5033029;28;19909;-57
2022/10/15 11:27:21;;;;;;;;;;;25.80;52.80;;;19.41;63.83;95371.91;5033465;28;19908;-52
2022/10/15 11:30:01;;;;;;;;;;;25.80;52.60;;;19.54;63.47;95387.09;5045980;28;20003;-56
2022/10/15 11:32:51;;;;;;;;;;;25.80;52.60;;;19.38;65.44;95383.38;5016827;28;19913;-54
2022/10/15 11:35:34;;;;;;;;;;;25.70;52.10;;;19.26;64.21;95380.56;5029996;28;19974;-57
2022/10/15 11:38:45;;;;;;;;;;;25.70;52.10;;;19.31;62.77;95375.78;5019231;28;20019;-56
2022/10/15 11:42:08;;;;;;;;;;;25.60;52.00;;;19.29;63.98;95377.22;5038639;28;19909;-57
2022/10/15 11:45:26;;;;;;;;;;;25.60;52.00;;;19.38;63.02;95369.88;4977444;28;20041;-55
2022/10/15 11:48:46;;;;;;;;;;;25.60;51.90;;;19.42;63.90;95358.06;5029895;28;19913;-56
2022/10/15 11:51:53;;;;;;;;;;;25.70;51.90;;;19.42;62.98;95349.97;4972730;28;19917;-55
2022/10/15 11:54:29;;;;;;;;;;;25.90;51.50;;;19.50;63.02;95363.78;4997593;28;19917;-55